sensor_id;sensor_type;location;lat;lon;timestamp;pressure;altitude;pressure_sealevel;temperature;humidity
68366;BME280;55283;51.466;5.478;2023-05-20T00:00:09;102198.66;;;23.44;28.07
68366;BME280;55283;51.466;5.478;2023-05-20T00:02:35;102203.50;;;23.43;28.14
68366;BME280;55283;51.466;5.478;2023-05-20T00:05:01;102196.69;;;23.41;28.03
68366;BME280;55283;51.466;5.478;2023-05-20T00:07:26;102197.16;;;23.39;28.04
68366;BME280;55283;51.466;5.478;2023-05-20T00:09:52;102200.69;;;23.43;28.17
68366;BME280;55283;51.466;5.478;2023-05-20T00:12:17;102199.09;;;23.42;28.31
68366;BME280;55283;51.466;5.478;2023-05-20T00:14:43;102201.53;;;23.40;28.22
68366;BME280;55283;51.466;5.478;2023-05-20T00:17:08;102196.69;;;23.41;28.09
68366;BME280;55283;51.466;5.478;2023-05-20T00:19:34;102203.13;;;23.41;28.07
68366;BME280;55283;51.466;5.478;2023-05-20T00:21:59;102201.91;;;23.42;28.20
68366;BME280;55283;51.466;5.478;2023-05-20T00:24:26;102202.31;;;23.41;28.16
68366;BME280;55283;51.466;5.478;2023-05-20T00:26:51;102199.50;;;23.41;28.06
68366;BME280;55283;51.466;5.478;2023-05-20T00:29:17;102199.13;;;23.39;28.23
68366;BME280;55283;51.466;5.478;2023-05-20T00:31:42;102203.91;;;23.42;28.18
68366;BME280;55283;51.466;5.478;2023-05-20T00:34:08;102198.34;;;23.38;28.40
68366;BME280;55283;51.466;5.478;2023-05-20T00:36:34;102188.00;;;23.32;28.46
68366;BME280;55283;51.466;5.478;2023-05-20T00:38:59;102198.41;;;23.35;27.98
68366;BME280;55283;51.466;5.478;2023-05-20T00:41:25;102195.13;;;23.40;28.16
68366;BME280;55283;51.466;5.478;2023-05-20T00:43:54;102190.69;;;23.39;28.38
68366;BME280;55283;51.466;5.478;2023-05-20T00:46:23;102205.63;;;23.36;28.47
68366;BME280;55283;51.466;5.478;2023-05-20T00:48:50;102202.81;;;23.36;28.14
68366;BME280;55283;51.466;5.478;2023-05-20T00:51:16;102201.22;;;23.35;28.16
68366;BME280;55283;51.466;5.478;2023-05-20T00:53:42;102188.78;;;23.32;28.41
68366;BME280;55283;51.466;5.478;2023-05-20T00:56:08;102195.19;;;23.33;28.50
68366;BME280;55283;51.466;5.478;2023-05-20T00:58:34;102187.16;;;23.35;28.35
68366;BME280;55283;51.466;5.478;2023-05-20T01:01:02;102187.53;;;23.37;28.30
68366;BME280;55283;51.466;5.478;2023-05-20T01:03:28;102181.13;;;23.33;28.34
68366;BME280;55283;51.466;5.478;2023-05-20T01:05:54;102186.75;;;23.36;28.34
68366;BME280;55283;51.466;5.478;2023-05-20T01:08:20;102187.53;;;23.37;28.52
68366;BME280;55283;51.466;5.478;2023-05-20T01:10:53;102183.13;;;23.36;28.39
68366;BME280;55283;51.466;5.478;2023-05-20T01:13:20;102181.13;;;23.33;28.55
68366;BME280;55283;51.466;5.478;2023-05-20T01:15:54;102177.97;;;23.31;28.32
68366;BME280;55283;51.466;5.478;2023-05-20T01:18:22;102176.38;;;23.30;28.60
68366;BME280;55283;51.466;5.478;2023-05-20T01:20:52;102179.19;;;23.30;28.58
68366;BME280;55283;51.466;5.478;2023-05-20T01:23:18;102182.38;;;23.32;28.53
68366;BME280;55283;51.466;5.478;2023-05-20T01:25:44;102177.97;;;23.31;28.51
68366;BME280;55283;51.466;5.478;2023-05-20T01:28:09;102188.00;;;23.32;28.49
68366;BME280;55283;51.466;5.478;2023-05-20T01:30:44;102182.78;;;23.30;28.44
68366;BME280;55283;51.466;5.478;2023-05-20T01:33:12;102175.66;;;23.25;28.62
68366;BME280;55283;51.466;5.478;2023-05-20T01:35:40;102183.22;;;23.28;28.75
68366;BME280;55283;51.466;5.478;2023-05-20T01:38:06;102166.75;;;23.27;28.46
68366;BME280;55283;51.466;5.478;2023-05-20T01:40:33;102170.75;;;23.30;28.62
68366;BME280;55283;51.466;5.478;2023-05-20T01:43:00;102157.03;;;23.32;28.61
68366;BME280;55283;51.466;5.478;2023-05-20T01:45:27;102158.31;;;23.27;28.59
68366;BME280;55283;51.466;5.478;2023-05-20T01:47:52;102162.69;;;23.32;28.46
68366;BME280;55283;51.466;5.478;2023-05-20T01:50:17;102164.78;;;23.27;28.44
68366;BME280;55283;51.466;5.478;2023-05-20T01:52:43;102170.75;;;23.30;28.78
68366;BME280;55283;51.466;5.478;2023-05-20T01:55:08;102170.75;;;23.30;28.88
68366;BME280;55283;51.466;5.478;2023-05-20T01:57:34;102157.16;;;23.24;28.77
68366;BME280;55283;51.466;5.478;2023-05-20T01:59:59;102157.53;;;23.26;28.80
68366;BME280;55283;51.466;5.478;2023-05-20T02:02:25;102161.97;;;23.27;28.82
68366;BME280;55283;51.466;5.478;2023-05-20T02:04:53;102157.47;;;23.30;28.51
68366;BME280;55283;51.466;5.478;2023-05-20T02:07:19;102159.56;;;23.26;28.62
68366;BME280;55283;51.466;5.478;2023-05-20T02:09:45;102157.53;;;23.26;28.73
68366;BME280;55283;51.466;5.478;2023-05-20T02:12:11;102159.56;;;23.26;28.62
68366;BME280;55283;51.466;5.478;2023-05-20T02:14:47;102158.78;;;23.25;28.82
68366;BME280;55283;51.466;5.478;2023-05-20T02:17:15;102157.59;;;23.23;28.77
68366;BME280;55283;51.466;5.478;2023-05-20T02:19:41;102164.81;;;23.24;28.76
68366;BME280;55283;51.466;5.478;2023-05-20T02:22:06;102149.66;;;23.18;28.64
68366;BME280;55283;51.466;5.478;2023-05-20T02:24:32;102155.59;;;23.23;28.76
68366;BME280;55283;51.466;5.478;2023-05-20T02:26:57;102152.41;;;23.21;28.73
68366;BME280;55283;51.466;5.478;2023-05-20T02:29:24;102149.25;;;23.19;28.91
68366;BME280;55283;51.466;5.478;2023-05-20T02:31:49;102154.00;;;23.22;28.77
68366;BME280;55283;51.466;5.478;2023-05-20T02:34:16;102152.84;;;23.20;28.78
68366;BME280;55283;51.466;5.478;2023-05-20T02:36:42;102160.84;;;23.21;28.84
68366;BME280;55283;51.466;5.478;2023-05-20T02:39:07;102150.81;;;23.20;28.94
68366;BME280;55283;51.466;5.478;2023-05-20T02:41:33;102154.41;;;23.21;28.78
68366;BME280;55283;51.466;5.478;2023-05-20T02:43:58;102157.59;;;23.23;28.85
68366;BME280;55283;51.466;5.478;2023-05-20T02:46:24;102159.63;;;23.22;28.98
68366;BME280;55283;51.466;5.478;2023-05-20T02:48:50;102157.22;;;23.21;29.00
68366;BME280;55283;51.466;5.478;2023-05-20T02:51:15;102147.63;;;23.18;28.92
68366;BME280;55283;51.466;5.478;2023-05-20T02:53:40;102157.22;;;23.21;29.13
68366;BME280;55283;51.466;5.478;2023-05-20T02:56:06;102149.16;;;23.23;28.97
68366;BME280;55283;51.466;5.478;2023-05-20T02:58:33;102148.38;;;23.22;28.94
68366;BME280;55283;51.466;5.478;2023-05-20T03:01:00;102148.78;;;23.21;29.21
68366;BME280;55283;51.466;5.478;2023-05-20T03:03:25;102148.00;;;23.20;28.89
68366;BME280;55283;51.466;5.478;2023-05-20T03:05:51;102152.06;;;23.19;29.04
68366;BME280;55283;51.466;5.478;2023-05-20T03:08:18;102143.63;;;23.19;28.96
68366;BME280;55283;51.466;5.478;2023-05-20T03:10:44;102138.00;;;23.19;28.95
68366;BME280;55283;51.466;5.478;2023-05-20T03:13:09;102148.88;;;23.17;29.02
68366;BME280;55283;51.466;5.478;2023-05-20T03:15:39;102140.06;;;23.15;29.22
68366;BME280;55283;51.466;5.478;2023-05-20T03:18:05;102137.63;;;23.17;29.03
68366;BME280;55283;51.466;5.478;2023-05-20T03:20:33;102146.13;;;23.14;29.12
68366;BME280;55283;51.466;5.478;2023-05-20T03:23:01;102140.84;;;23.16;29.19
68366;BME280;55283;51.466;5.478;2023-05-20T03:25:26;102144.47;;;23.16;29.16
68366;BME280;55283;51.466;5.478;2023-05-20T03:27:52;102137.63;;;23.17;29.17
68366;BME280;55283;51.466;5.478;2023-05-20T03:30:17;102139.19;;;23.18;29.17
68366;BME280;55283;51.466;5.478;2023-05-20T03:32:43;102136.81;;;23.17;29.11
68366;BME280;55283;51.466;5.478;2023-05-20T03:35:08;102142.88;;;23.15;29.18
68366;BME280;55283;51.466;5.478;2023-05-20T03:37:34;102145.34;;;23.13;29.28
68366;BME280;55283;51.466;5.478;2023-05-20T03:40:00;102136.91;;;23.13;29.12
68366;BME280;55283;51.466;5.478;2023-05-20T03:42:26;102140.06;;;23.15;29.04
68366;BME280;55283;51.466;5.478;2023-05-20T03:44:51;102143.25;;;23.17;29.15
68366;BME280;55283;51.466;5.478;2023-05-20T03:47:17;102141.28;;;23.14;29.07
68366;BME280;55283;51.466;5.478;2023-05-20T03:49:42;102140.44;;;23.17;29.22
68366;BME280;55283;51.466;5.478;2023-05-20T03:52:07;102138.47;;;23.14;29.47
68366;BME280;55283;51.466;5.478;2023-05-20T03:54:33;102142.88;;;23.15;29.22
68366;BME280;55283;51.466;5.478;2023-05-20T03:57:00;102139.72;;;23.13;29.64
68366;BME280;55283;51.466;5.478;2023-05-20T03:59:27;102137.31;;;23.12;29.21
68366;BME280;55283;51.466;5.478;2023-05-20T04:01:52;102136.16;;;23.09;29.31
68366;BME280;55283;51.466;5.478;2023-05-20T04:04:18;102133.72;;;23.11;29.25
68366;BME280;55283;51.466;5.478;2023-05-20T04:06:44;102134.88;;;23.14;29.36
68366;BME280;55283;51.466;5.478;2023-05-20T04:09:10;102136.06;;;23.13;29.37
68366;BME280;55283;51.466;5.478;2023-05-20T04:11:35;102138.47;;;23.14;29.45
68366;BME280;55283;51.466;5.478;2023-05-20T04:14:01;102140.91;;;23.12;29.33
68366;BME280;55283;51.466;5.478;2023-05-20T04:16:26;102146.53;;;23.12;29.19
68366;BME280;55283;51.466;5.478;2023-05-20T04:18:54;102145.03;;;23.08;29.39
68366;BME280;55283;51.466;5.478;2023-05-20T04:21:19;102151.00;;;23.10;29.32
68366;BME280;55283;51.466;5.478;2023-05-20T04:23:45;102152.16;;;23.12;29.27
68366;BME280;55283;51.466;5.478;2023-05-20T04:26:10;102153.78;;;23.13;29.41
68366;BME280;55283;51.466;5.478;2023-05-20T04:28:37;102153.78;;;23.13;29.57
68366;BME280;55283;51.466;5.478;2023-05-20T04:31:03;102145.69;;;23.15;29.46
68366;BME280;55283;51.466;5.478;2023-05-20T04:33:29;102145.69;;;23.15;29.37
68366;BME280;55283;51.466;5.478;2023-05-20T04:35:55;102150.50;;;23.15;29.47
68366;BME280;55283;51.466;5.478;2023-05-20T04:38:24;102142.88;;;23.15;29.47
68366;BME280;55283;51.466;5.478;2023-05-20T04:41:00;102145.69;;;23.15;29.36
68366;BME280;55283;51.466;5.478;2023-05-20T04:43:27;102141.69;;;23.13;29.55
68366;BME280;55283;51.466;5.478;2023-05-20T04:45:56;102142.16;;;23.11;29.55
68366;BME280;55283;51.466;5.478;2023-05-20T04:48:22;102143.41;;;23.07;29.53
68366;BME280;55283;51.466;5.478;2023-05-20T04:50:48;102139.81;;;23.06;29.72
68366;BME280;55283;51.466;5.478;2023-05-20T04:53:17;102149.34;;;23.12;29.51
68366;BME280;55283;51.466;5.478;2023-05-20T04:55:44;102146.53;;;23.12;29.64
68366;BME280;55283;51.466;5.478;2023-05-20T04:58:10;102150.59;;;23.11;29.70
68366;BME280;55283;51.466;5.478;2023-05-20T05:00:44;102149.78;;;23.11;29.63
68366;BME280;55283;51.466;5.478;2023-05-20T05:03:11;102144.16;;;23.11;29.78
68366;BME280;55283;51.466;5.478;2023-05-20T05:05:37;102143.41;;;23.07;29.77
68366;BME280;55283;51.466;5.478;2023-05-20T05:08:04;102136.22;;;23.05;29.92
68366;BME280;55283;51.466;5.478;2023-05-20T05:10:33;102137.78;;;23.07;29.78
68366;BME280;55283;51.466;5.478;2023-05-20T05:12:59;102129.00;;;23.04;29.85
68366;BME280;55283;51.466;5.478;2023-05-20T05:15:25;102135.00;;;23.07;29.67
68366;BME280;55283;51.466;5.478;2023-05-20T05:17:50;102133.72;;;23.11;29.87
68366;BME280;55283;51.466;5.478;2023-05-20T05:20:16;102130.53;;;23.09;29.78
68366;BME280;55283;51.466;5.478;2023-05-20T05:22:42;102129.81;;;23.05;29.75
68366;BME280;55283;51.466;5.478;2023-05-20T05:25:08;102126.13;;;23.08;29.94
68366;BME280;55283;51.466;5.478;2023-05-20T05:27:34;102120.94;;;23.07;29.83
68366;BME280;55283;51.466;5.478;2023-05-20T05:30:01;102130.44;;;23.13;30.11
68366;BME280;55283;51.466;5.478;2023-05-20T05:32:26;102135.59;;;23.18;30.17
68366;BME280;55283;51.466;5.478;2023-05-20T05:34:52;102125.66;;;23.13;29.79
68366;BME280;55283;51.466;5.478;2023-05-20T05:37:18;102128.88;;;23.12;29.96
68366;BME280;55283;51.466;5.478;2023-05-20T05:39:43;102126.38;;;23.17;30.06
68366;BME280;55283;51.466;5.478;2023-05-20T05:42:09;102121.59;;;23.14;30.11
68366;BME280;55283;51.466;5.478;2023-05-20T05:44:34;102124.41;;;23.14;30.36
68366;BME280;55283;51.466;5.478;2023-05-20T05:47:00;102113.16;;;23.14;30.35
68366;BME280;55283;51.466;5.478;2023-05-20T05:49:25;102118.00;;;23.14;30.36
68366;BME280;55283;51.466;5.478;2023-05-20T05:51:50;102123.56;;;23.17;30.49
68366;BME280;55283;51.466;5.478;2023-05-20T05:54:16;102123.06;;;23.22;30.73
68366;BME280;55283;51.466;5.478;2023-05-20T05:56:41;102130.19;;;23.27;30.15
68366;BME280;55283;51.466;5.478;2023-05-20T05:59:07;102124.53;;;23.31;30.87
68366;BME280;55283;51.466;5.478;2023-05-20T06:01:32;102135.31;;;23.32;30.56
68366;BME280;55283;51.466;5.478;2023-05-20T06:03:58;102127.69;;;23.33;30.89
68366;BME280;55283;51.466;5.478;2023-05-20T06:06:23;102131.72;;;23.32;31.51
68366;BME280;55283;51.466;5.478;2023-05-20T06:08:49;102133.31;;;23.33;31.77
68366;BME280;55283;51.466;5.478;2023-05-20T06:11:14;102126.84;;;23.36;32.46
68366;BME280;55283;51.466;5.478;2023-05-20T06:13:40;102120.81;;;23.37;32.42
68366;BME280;55283;51.466;5.478;2023-05-20T06:16:05;102121.59;;;23.38;33.19
68366;BME280;55283;51.466;5.478;2023-05-20T06:18:31;102116.34;;;23.40;32.67
68366;BME280;55283;51.466;5.478;2023-05-20T06:20:57;102121.97;;;23.40;33.14
68366;BME280;55283;51.466;5.478;2023-05-20T06:23:22;102112.44;;;23.30;31.88
68366;BME280;55283;51.466;5.478;2023-05-20T06:25:49;102106.47;;;22.85;30.72
68366;BME280;55283;51.466;5.478;2023-05-20T06:28:15;102098.97;;;22.24;30.54
68366;BME280;55283;51.466;5.478;2023-05-20T06:30:41;102105.38;;;21.63;31.60
68366;BME280;55283;51.466;5.478;2023-05-20T06:33:06;102098.88;;;21.35;31.96
68366;BME280;55283;51.466;5.478;2023-05-20T06:35:32;102100.13;;;21.31;32.34
68366;BME280;55283;51.466;5.478;2023-05-20T06:38:00;102079.59;;;20.99;32.56
68366;BME280;55283;51.466;5.478;2023-05-20T06:40:27;102107.06;;;21.19;32.34
68366;BME280;55283;51.466;5.478;2023-05-20T06:42:52;102095.31;;;21.31;31.91
68366;BME280;55283;51.466;5.478;2023-05-20T06:45:18;102099.16;;;21.03;32.61
68366;BME280;55283;51.466;5.478;2023-05-20T06:47:44;102089.41;;;21.22;32.51
68366;BME280;55283;51.466;5.478;2023-05-20T06:50:12;102090.13;;;21.64;31.91
68366;BME280;55283;51.466;5.478;2023-05-20T06:52:37;102098.22;;;21.89;31.65
68366;BME280;55283;51.466;5.478;2023-05-20T06:55:04;102090.75;;;22.09;31.46
68366;BME280;55283;51.466;5.478;2023-05-20T06:57:29;102081.34;;;22.23;31.61
68366;BME280;55283;51.466;5.478;2023-05-20T06:59:55;102085.97;;;22.33;31.71
68366;BME280;55283;51.466;5.478;2023-05-20T07:02:21;102087.84;;;22.44;32.62
68366;BME280;55283;51.466;5.478;2023-05-20T07:04:47;102083.31;;;22.50;33.56
68366;BME280;55283;51.466;5.478;2023-05-20T07:07:12;102083.97;;;22.57;31.59
68366;BME280;55283;51.466;5.478;2023-05-20T07:09:38;102081.50;;;22.63;33.19
68366;BME280;55283;51.466;5.478;2023-05-20T07:12:03;102091.91;;;22.66;31.45
68366;BME280;55283;51.466;5.478;2023-05-20T07:14:29;102078.28;;;22.65;31.31
68366;BME280;55283;51.466;5.478;2023-05-20T07:16:54;102081.28;;;22.77;31.51
68366;BME280;55283;51.466;5.478;2023-05-20T07:19:19;102075.59;;;22.81;31.77
68366;BME280;55283;51.466;5.478;2023-05-20T07:21:45;102080.41;;;22.80;31.84
68366;BME280;55283;51.466;5.478;2023-05-20T07:24:10;102083.91;;;22.88;31.60
68366;BME280;55283;51.466;5.478;2023-05-20T07:26:36;102070.63;;;22.89;31.60
68366;BME280;55283;51.466;5.478;2023-05-20T07:29:04;102076.94;;;22.96;31.72
68366;BME280;55283;51.466;5.478;2023-05-20T07:31:30;102076.47;;;22.98;31.79
68366;BME280;55283;51.466;5.478;2023-05-20T07:33:56;102073.63;;;23.01;32.24
68366;BME280;55283;51.466;5.478;2023-05-20T07:36:21;102072.81;;;23.01;32.15
68366;BME280;55283;51.466;5.478;2023-05-20T07:38:47;102071.13;;;23.07;32.01
68366;BME280;55283;51.466;5.478;2023-05-20T07:41:12;102069.03;;;23.11;31.70
68366;BME280;55283;51.466;5.478;2023-05-20T07:43:38;102060.50;;;23.15;31.82
68366;BME280;55283;51.466;5.478;2023-05-20T07:46:03;102064.09;;;23.15;31.70
68366;BME280;55283;51.466;5.478;2023-05-20T07:48:29;102056.41;;;23.19;31.77
68366;BME280;55283;51.466;5.478;2023-05-20T07:50:54;102057.13;;;23.23;31.66
68366;BME280;55283;51.466;5.478;2023-05-20T07:53:23;102055.06;;;23.27;31.55
68366;BME280;55283;51.466;5.478;2023-05-20T07:55:49;102073.88;;;23.31;31.47
68366;BME280;55283;51.466;5.478;2023-05-20T07:58:14;102062.13;;;23.36;31.48
68366;BME280;55283;51.466;5.478;2023-05-20T08:00:40;102056.88;;;23.38;31.56
68366;BME280;55283;51.466;5.478;2023-05-20T08:03:05;102057.66;;;23.38;31.34
68366;BME280;55283;51.466;5.478;2023-05-20T08:05:32;102049.50;;;23.44;31.25
68366;BME280;55283;51.466;5.478;2023-05-20T08:07:57;102042.31;;;23.43;31.41
68366;BME280;55283;51.466;5.478;2023-05-20T08:10:23;102051.13;;;23.45;30.72
68366;BME280;55283;51.466;5.478;2023-05-20T08:12:48;102035.44;;;23.44;31.26
68366;BME280;55283;51.466;5.478;2023-05-20T08:15:14;102051.13;;;23.45;31.04
68366;BME280;55283;51.466;5.478;2023-05-20T08:17:39;102040.56;;;23.49;30.92
68366;BME280;55283;51.466;5.478;2023-05-20T08:20:05;102038.13;;;23.51;31.16
68366;BME280;55283;51.466;5.478;2023-05-20T08:22:32;102016.03;;;23.49;31.00
68366;BME280;55283;51.466;5.478;2023-05-20T08:24:57;102021.56;;;23.53;31.55
68366;BME280;55283;51.466;5.478;2023-05-20T08:27:23;102027.47;;;23.59;31.49
68366;BME280;55283;51.466;5.478;2023-05-20T08:29:50;102019.41;;;23.61;31.29
68366;BME280;55283;51.466;5.478;2023-05-20T08:32:15;102037.28;;;23.70;31.11
68366;BME280;55283;51.466;5.478;2023-05-20T08:34:41;102032.09;;;23.69;31.11
68366;BME280;55283;51.466;5.478;2023-05-20T08:37:07;102013.47;;;23.75;31.04
68366;BME280;55283;51.466;5.478;2023-05-20T08:39:32;102030.44;;;23.71;31.38
68366;BME280;55283;51.466;5.478;2023-05-20T08:41:58;102028.69;;;23.78;31.44
68366;BME280;55283;51.466;5.478;2023-05-20T08:44:24;102029.38;;;23.82;31.65
68366;BME280;55283;51.466;5.478;2023-05-20T08:46:50;102021.66;;;23.86;31.63
68366;BME280;55283;51.466;5.478;2023-05-20T08:49:16;102029.25;;;23.89;31.21
68366;BME280;55283;51.466;5.478;2023-05-20T08:51:42;102009.88;;;23.91;31.23
68366;BME280;55283;51.466;5.478;2023-05-20T08:54:08;102023.59;;;23.89;30.94
68366;BME280;55283;51.466;5.478;2023-05-20T08:56:34;102018.59;;;23.97;30.89
68366;BME280;55283;51.466;5.478;2023-05-20T08:59:00;102018.94;;;23.99;30.84
68366;BME280;55283;51.466;5.478;2023-05-20T09:01:25;102002.06;;;23.99;30.57
68366;BME280;55283;51.466;5.478;2023-05-20T09:03:51;102010.00;;;24.04;30.53
68366;BME280;55283;51.466;5.478;2023-05-20T09:06:17;102013.63;;;24.04;30.38
68366;BME280;55283;51.466;5.478;2023-05-20T09:08:48;102002.34;;;24.04;30.58
68366;BME280;55283;51.466;5.478;2023-05-20T09:11:14;102001.47;;;24.07;30.72
68366;BME280;55283;51.466;5.478;2023-05-20T09:13:39;102008.25;;;24.10;30.51
68366;BME280;55283;51.466;5.478;2023-05-20T09:16:05;102013.44;;;24.11;30.67
68366;BME280;55283;51.466;5.478;2023-05-20T09:18:31;101999.34;;;24.11;30.41
68366;BME280;55283;51.466;5.478;2023-05-20T09:20:57;102002.53;;;24.13;30.32
68366;BME280;55283;51.466;5.478;2023-05-20T09:23:22;101990.00;;;24.14;30.52
68366;BME280;55283;51.466;5.478;2023-05-20T09:25:50;101998.81;;;24.16;30.41
68366;BME280;55283;51.466;5.478;2023-05-20T09:28:18;101979.63;;;24.11;30.26
68366;BME280;55283;51.466;5.478;2023-05-20T09:30:44;101998.41;;;24.18;30.12
68366;BME280;55283;51.466;5.478;2023-05-20T09:33:12;101995.22;;;24.16;30.18
68366;BME280;55283;51.466;5.478;2023-05-20T09:35:38;102001.91;;;24.22;30.12
68366;BME280;55283;51.466;5.478;2023-05-20T09:38:04;102004.03;;;24.18;30.26
68366;BME280;55283;51.466;5.478;2023-05-20T09:40:32;102006.75;;;24.22;30.22
68366;BME280;55283;51.466;5.478;2023-05-20T09:43:04;102005.41;;;24.26;30.40
68366;BME280;55283;51.466;5.478;2023-05-20T09:45:31;101997.78;;;24.27;30.20
68366;BME280;55283;51.466;5.478;2023-05-20T09:47:56;102011.41;;;24.28;30.21
68366;BME280;55283;51.466;5.478;2023-05-20T09:50:24;101987.47;;;24.20;30.18
68366;BME280;55283;51.466;5.478;2023-05-20T09:52:51;101994.97;;;24.27;30.27
68366;BME280;55283;51.466;5.478;2023-05-20T09:55:19;101990.53;;;24.26;30.89
68366;BME280;55283;51.466;5.478;2023-05-20T09:57:45;101996.13;;;24.29;30.55
68366;BME280;55283;51.466;5.478;2023-05-20T10:00:12;101979.91;;;24.33;30.39
68366;BME280;55283;51.466;5.478;2023-05-20T10:02:43;101982.63;;;24.37;30.46
68366;BME280;55283;51.466;5.478;2023-05-20T10:05:15;101971.88;;;24.32;30.32
68366;BME280;55283;51.466;5.478;2023-05-20T10:13:08;101963.34;;;24.19;30.40
68366;BME280;55283;51.466;5.478;2023-05-20T10:20:45;101964.34;;;24.12;32.30
68366;BME280;55283;51.466;5.478;2023-05-20T10:23:22;101954.81;;;24.23;32.18
68366;BME280;55283;51.466;5.478;2023-05-20T10:25:52;101946.88;;;24.17;32.01
68366;BME280;55283;51.466;5.478;2023-05-20T10:28:32;101948.47;;;24.19;31.96
68366;BME280;55283;51.466;5.478;2023-05-20T10:30:59;101941.59;;;24.20;31.82
68366;BME280;55283;51.466;5.478;2023-05-20T10:33:28;101944.78;;;24.22;30.70
68366;BME280;55283;51.466;5.478;2023-05-20T10:35:58;101948.22;;;24.13;32.14
68366;BME280;55283;51.466;5.478;2023-05-20T10:38:24;101952.59;;;24.14;31.81
68366;BME280;55283;51.466;5.478;2023-05-20T10:40:51;101950.56;;;24.14;32.52
68366;BME280;55283;51.466;5.478;2023-05-20T10:43:25;101938.63;;;24.10;33.04
68366;BME280;55283;51.466;5.478;2023-05-20T10:45:53;101945.81;;;24.11;32.79
68366;BME280;55283;51.466;5.478;2023-05-20T10:48:29;101943.81;;;24.12;32.43
68366;BME280;55283;51.466;5.478;2023-05-20T10:51:00;101924.91;;;24.12;32.45
68366;BME280;55283;51.466;5.478;2023-05-20T10:53:36;101928.50;;;24.13;32.26
68366;BME280;55283;51.466;5.478;2023-05-20T10:56:02;101930.06;;;24.14;32.04
68366;BME280;55283;51.466;5.478;2023-05-20T10:58:36;101930.06;;;24.14;32.04
68366;BME280;55283;51.466;5.478;2023-05-20T11:01:01;101916.34;;;24.16;32.02
68366;BME280;55283;51.466;5.478;2023-05-20T11:03:28;101914.31;;;24.16;31.80
68366;BME280;55283;51.466;5.478;2023-05-20T11:05:53;101916.69;;;24.18;31.67
68366;BME280;55283;51.466;5.478;2023-05-20T11:08:19;101918.69;;;24.17;31.48
68366;BME280;55283;51.466;5.478;2023-05-20T11:10:44;101909.03;;;24.19;31.74
68366;BME280;55283;51.466;5.478;2023-05-20T11:13:11;101920.09;;;24.26;31.86
68366;BME280;55283;51.466;5.478;2023-05-20T11:15:38;101910.25;;;24.17;31.71
68366;BME280;55283;51.466;5.478;2023-05-20T11:18:04;101899.25;;;24.23;31.41
68366;BME280;55283;51.466;5.478;2023-05-20T11:20:30;101912.91;;;24.25;31.42
68366;BME280;55283;51.466;5.478;2023-05-20T11:22:59;101894.75;;;24.26;31.31
68366;BME280;55283;51.466;5.478;2023-05-20T11:25:25;101903.56;;;24.28;31.32
68366;BME280;55283;51.466;5.478;2023-05-20T11:27:52;101915.72;;;24.25;31.33
68366;BME280;55283;51.466;5.478;2023-05-20T11:30:18;101902.00;;;24.27;31.28
68366;BME280;55283;51.466;5.478;2023-05-20T11:32:57;101910.09;;;24.25;31.25
68366;BME280;55283;51.466;5.478;2023-05-20T11:35:24;101913.31;;;24.23;31.24
68366;BME280;55283;51.466;5.478;2023-05-20T11:38:05;101899.81;;;24.18;31.29
68366;BME280;55283;51.466;5.478;2023-05-20T11:40:33;101890.53;;;24.17;31.04
68366;BME280;55283;51.466;5.478;2023-05-20T11:43:00;101902.31;;;24.29;31.23
68366;BME280;55283;51.466;5.478;2023-05-20T11:45:26;101882.59;;;24.29;31.40
68366;BME280;55283;51.466;5.478;2023-05-20T11:47:59;101901.44;;;24.32;31.27
68366;BME280;55283;51.466;5.478;2023-05-20T11:50:25;101903.91;;;24.30;31.27
68366;BME280;55283;51.466;5.478;2023-05-20T11:52:56;101901.09;;;24.30;31.29
68366;BME280;55283;51.466;5.478;2023-05-20T11:55:22;101892.72;;;24.26;31.52
68366;BME280;55283;51.466;5.478;2023-05-20T11:57:49;101887.44;;;24.28;31.32
68366;BME280;55283;51.466;5.478;2023-05-20T12:00:14;101882.25;;;24.27;31.41
68366;BME280;55283;51.466;5.478;2023-05-20T12:02:40;101878.56;;;24.30;31.27
68366;BME280;55283;51.466;5.478;2023-05-20T12:05:06;101865.69;;;24.29;31.09
68366;BME280;55283;51.466;5.478;2023-05-20T12:07:32;101882.94;;;24.31;31.01
68366;BME280;55283;51.466;5.478;2023-05-20T12:09:57;101876.16;;;24.28;31.23
68366;BME280;55283;51.466;5.478;2023-05-20T12:12:23;101862.06;;;24.28;31.09
68366;BME280;55283;51.466;5.478;2023-05-20T12:14:49;101858.59;;;24.24;31.38
68366;BME280;55283;51.466;5.478;2023-05-20T12:17:15;101879.88;;;24.25;31.40
68366;BME280;55283;51.466;5.478;2023-05-20T12:19:40;101870.19;;;24.26;31.27
68366;BME280;55283;51.466;5.478;2023-05-20T12:22:06;101854.53;;;24.25;31.24
68366;BME280;55283;51.466;5.478;2023-05-20T12:24:31;101853.38;;;24.23;31.30
68366;BME280;55283;51.466;5.478;2023-05-20T12:26:57;101856.19;;;24.23;31.19
68366;BME280;55283;51.466;5.478;2023-05-20T12:29:22;101865.34;;;24.27;31.18
68366;BME280;55283;51.466;5.478;2023-05-20T12:31:48;101856.00;;;24.30;31.08
68366;BME280;55283;51.466;5.478;2023-05-20T12:34:13;101859.25;;;24.28;31.39
68366;BME280;55283;51.466;5.478;2023-05-20T12:36:38;101867.59;;;24.32;30.96
68366;BME280;55283;51.466;5.478;2023-05-20T12:39:04;101863.69;;;24.29;31.16
68366;BME280;55283;51.466;5.478;2023-05-20T12:41:30;101869.06;;;24.24;31.24
68366;BME280;55283;51.466;5.478;2023-05-20T12:43:55;101858.13;;;24.26;31.09
68366;BME280;55283;51.466;5.478;2023-05-20T12:46:21;101858.47;;;24.28;31.18
68366;BME280;55283;51.466;5.478;2023-05-20T12:48:46;101860.41;;;24.31;31.20
68366;BME280;55283;51.466;5.478;2023-05-20T12:51:12;101854.34;;;24.32;31.24
68366;BME280;55283;51.466;5.478;2023-05-20T12:53:37;101851.53;;;24.32;31.22
68366;BME280;55283;51.466;5.478;2023-05-20T12:56:03;101849.50;;;24.33;31.27